sensor_id;sensor_type;location;lat;lon;timestamp;pressure;altitude;pressure_sealevel;temperature;humidity
62293;BME280;48292;47.724;18.992;2022-09-03T03:33:32;97476.81;;;9.76;97.04
62293;BME280;48292;47.724;18.992;2022-09-03T03:38:34;97476.81;;;9.76;97.04
62293;BME280;48292;47.724;18.992;2022-09-03T03:43:36;97478.35;;;9.79;99.38
62293;BME280;48292;47.724;18.992;2022-09-03T03:48:37;97478.35;;;9.79;99.38
62293;BME280;48292;47.724;18.992;2022-09-03T03:53:40;97485.82;;;9.71;100.0
62293;BME280;48292;47.724;18.992;2022-09-03T03:58:41;97485.82;;;9.71;100.0
62293;BME280;48292;47.724;18.992;2022-09-03T04:03:43;97485.34;;;9.72;99.72
62293;BME280;48292;47.724;18.992;2022-09-03T04:08:46;97485.34;;;9.72;99.72
62293;BME280;48292;47.724;18.992;2022-09-03T04:13:51;97492.56;;;9.64;100.0
62293;BME280;48292;47.724;18.992;2022-09-03T04:18:53;97499.2;;;9.78;100.0
62293;BME280;48292;47.724;18.992;2022-09-03T04:23:55;97499.2;;;9.78;100.0
62293;BME280;48292;47.724;18.992;2022-09-03T04:28:58;97506.72;;;9.81;100.0
62293;BME280;48292;47.724;18.992;2022-09-03T04:33:59;97506.72;;;9.81;100.0
62293;BME280;48292;47.724;18.992;2022-09-03T04:39:01;97503.65;;;9.93;100.0
62293;BME280;48292;47.724;18.992;2022-09-03T04:44:03;97503.65;;;9.93;100.0
62293;BME280;48292;47.724;18.992;2022-09-03T04:49:05;97510.86;;;10.02;100.0
62293;BME280;48292;47.724;18.992;2022-09-03T04:54:06;97510.86;;;10.02;100.0
62293;BME280;48292;47.724;18.992;2022-09-03T04:59:08;97520.5;;;10.05;100.0
62293;BME280;48292;47.724;18.992;2022-09-03T05:04:10;97520.5;;;10.05;100.0
62293;BME280;48292;47.724;18.992;2022-09-03T05:09:12;97517.13;;;10.27;100.0
62293;BME280;48292;47.724;18.992;2022-09-03T05:14:13;97517.13;;;10.27;100.0
62293;BME280;48292;47.724;18.992;2022-09-03T05:19:15;97512.25;;;10.45;100.0
62293;BME280;48292;47.724;18.992;2022-09-03T05:24:17;97512.25;;;10.45;100.0
62293;BME280;48292;47.724;18.992;2022-09-03T05:29:19;97530.34;;;11.21;97.26
62293;BME280;48292;47.724;18.992;2022-09-03T05:34:20;97518.3;;;12.0;93.14
62293;BME280;48292;47.724;18.992;2022-09-03T05:39:22;97518.3;;;12.0;93.14
62293;BME280;48292;47.724;18.992;2022-09-03T05:44:24;97523.63;;;12.73;85.28
62293;BME280;48292;47.724;18.992;2022-09-03T05:49:26;97523.63;;;12.73;85.28
62293;BME280;48292;47.724;18.992;2022-09-03T05:54:27;97522.81;;;13.07;84.06
62293;BME280;48292;47.724;18.992;2022-09-03T05:59:29;97522.81;;;13.07;84.06
62293;BME280;48292;47.724;18.992;2022-09-03T06:04:31;97511.2;;;13.34;86.33
62293;BME280;48292;47.724;18.992;2022-09-03T06:09:35;97511.2;;;13.34;86.33
62293;BME280;48292;47.724;18.992;2022-09-03T06:14:36;97514.35;;;13.47;85.17
62293;BME280;48292;47.724;18.992;2022-09-03T06:19:38;97514.35;;;13.47;85.17
62293;BME280;48292;47.724;18.992;2022-09-03T06:24:40;97519.56;;;13.54;83.08
62293;BME280;48292;47.724;18.992;2022-09-03T06:29:41;97519.56;;;13.54;83.08
62293;BME280;48292;47.724;18.992;2022-09-03T06:34:43;97512.56;;;13.82;83.84
62293;BME280;48292;47.724;18.992;2022-09-03T06:39:45;97512.56;;;13.82;83.84
62293;BME280;48292;47.724;18.992;2022-09-03T06:44:47;97516.24;;;13.98;83.45
62293;BME280;48292;47.724;18.992;2022-09-03T06:49:49;97508.63;;;14.16;87.13
62293;BME280;48292;47.724;18.992;2022-09-03T06:54:50;97508.63;;;14.16;87.13
62293;BME280;48292;47.724;18.992;2022-09-03T06:59:52;97511.13;;;14.44;81.79
62293;BME280;48292;47.724;18.992;2022-09-03T07:04:54;97511.13;;;14.44;81.79
62293;BME280;48292;47.724;18.992;2022-09-03T07:09:56;97509.74;;;14.59;80.48
62293;BME280;48292;47.724;18.992;2022-09-03T07:14:58;97509.74;;;14.59;80.48
62293;BME280;48292;47.724;18.992;2022-09-03T07:20:01;97509.75;;;15.07;80.91
62293;BME280;48292;47.724;18.992;2022-09-03T07:25:03;97509.75;;;15.07;80.91
62293;BME280;48292;47.724;18.992;2022-09-03T07:30:06;97522.02;;;15.35;77.41
62293;BME280;48292;47.724;18.992;2022-09-03T07:35:08;97522.02;;;15.35;77.41
62293;BME280;48292;47.724;18.992;2022-09-03T07:40:10;97516.59;;;15.59;74.35
62293;BME280;48292;47.724;18.992;2022-09-03T07:45:12;97516.59;;;15.59;74.35
62293;BME280;48292;47.724;18.992;2022-09-03T07:50:14;97504.94;;;15.91;73.55
62293;BME280;48292;47.724;18.992;2022-09-03T07:55:16;97504.94;;;15.91;73.55
62293;BME280;48292;47.724;18.992;2022-09-03T08:00:17;97513.02;;;16.73;68.48
62293;BME280;48292;47.724;18.992;2022-09-03T08:05:19;97513.02;;;16.73;68.48
62293;BME280;48292;47.724;18.992;2022-09-03T08:10:21;97511.83;;;18.01;64.6
62293;BME280;48292;47.724;18.992;2022-09-03T08:15:23;97517.72;;;17.4;64.47
62293;BME280;48292;47.724;18.992;2022-09-03T08:20:25;97517.72;;;17.4;64.47
62293;BME280;48292;47.724;18.992;2022-09-03T08:25:26;97508.86;;;17.66;61.93
62293;BME280;48292;47.724;18.992;2022-09-03T08:30:28;97508.86;;;17.66;61.93
62293;BME280;48292;47.724;18.992;2022-09-03T08:35:30;97510.23;;;17.95;68.36
62293;BME280;48292;47.724;18.992;2022-09-03T08:40:32;97510.23;;;17.95;68.36
62293;BME280;48292;47.724;18.992;2022-09-03T08:45:37;97510.82;;;18.36;60.65
62293;BME280;48292;47.724;18.992;2022-09-03T08:50:39;97510.82;;;18.36;60.65
62293;BME280;48292;47.724;18.992;2022-09-03T08:55:42;97503.52;;;18.85;57.09
62293;BME280;48292;47.724;18.992;2022-09-03T09:00:53;97503.52;;;18.85;57.09
62293;BME280;48292;47.724;18.992;2022-09-03T09:05:59;97489.95;;;19.82;59.92
62293;BME280;48292;47.724;18.992;2022-09-03T09:11:05;97489.95;;;19.82;59.92
62293;BME280;48292;47.724;18.992;2022-09-03T09:16:11;97488.79;;;22.77;49.2
62293;BME280;48292;47.724;18.992;2022-09-03T09:21:15;97488.79;;;22.77;49.2
62293;BME280;48292;47.724;18.992;2022-09-03T09:26:27;97484.17;;;24.06;43.84
62293;BME280;48292;47.724;18.992;2022-09-03T09:31:31;97482.63;;;22.28;48.38
62293;BME280;48292;47.724;18.992;2022-09-03T09:36:35;97482.63;;;22.28;48.38
62293;BME280;48292;47.724;18.992;2022-09-03T09:41:38;97478.59;;;24.89;46.72
62293;BME280;48292;47.724;18.992;2022-09-03T09:46:39;97478.59;;;24.89;46.72
62293;BME280;48292;47.724;18.992;2022-09-03T09:51:42;97490.52;;;22.41;46.77
62293;BME280;48292;47.724;18.992;2022-09-03T09:56:44;97490.52;;;22.41;46.77
62293;BME280;48292;47.724;18.992;2022-09-03T10:01:45;97491.58;;;20.3;53.84
62293;BME280;48292;47.724;18.992;2022-09-03T10:06:52;97491.58;;;20.3;53.84
62293;BME280;48292;47.724;18.992;2022-09-03T10:11:58;97499.94;;;19.57;56.07
62293;BME280;48292;47.724;18.992;2022-09-03T10:17:03;97499.94;;;19.57;56.07
62293;BME280;48292;47.724;18.992;2022-09-03T10:22:08;97503.63;;;19.6;57.54
62293;BME280;48292;47.724;18.992;2022-09-03T10:27:10;97503.63;;;19.6;57.54
62293;BME280;48292;47.724;18.992;2022-09-03T10:32:18;97499.92;;;19.69;52.66
62293;BME280;48292;47.724;18.992;2022-09-03T10:37:25;97506.1;;;19.76;53.08
62293;BME280;48292;47.724;18.992;2022-09-03T10:42:33;97506.1;;;19.76;53.08
62293;BME280;48292;47.724;18.992;2022-09-03T10:47:42;97499.41;;;20.42;58.22
62293;BME280;48292;47.724;18.992;2022-09-03T10:52:54;97499.41;;;20.42;58.22
62293;BME280;48292;47.724;18.992;2022-09-03T10:57:57;97491.95;;;20.81;59.5
62293;BME280;48292;47.724;18.992;2022-09-03T11:03:14;97491.95;;;20.81;59.5
62293;BME280;48292;47.724;18.992;2022-09-03T11:08:18;97477.29;;;21.7;53.65
62293;BME280;48292;47.724;18.992;2022-09-03T11:13:23;97477.29;;;21.7;53.65
62293;BME280;48292;47.724;18.992;2022-09-03T11:18:28;97470.41;;;21.39;52.4
62293;BME280;48292;47.724;18.992;2022-09-03T11:23:33;97470.41;;;21.39;52.4
62293;BME280;48292;47.724;18.992;2022-09-03T11:28:40;97463.66;;;21.46;48.96
62293;BME280;48292;47.724;18.992;2022-09-03T11:33:44;97463.66;;;21.46;48.96
62293;BME280;48292;47.724;18.992;2022-09-03T11:38:50;97468.12;;;22.68;50.3
62293;BME280;48292;47.724;18.992;2022-09-03T11:43:52;97475.56;;;21.77;47.8
62293;BME280;48292;47.724;18.992;2022-09-03T11:48:54;97475.56;;;21.77;47.8
62293;BME280;48292;47.724;18.992;2022-09-03T11:53:57;97476.66;;;21.81;48.82
62293;BME280;48292;47.724;18.992;2022-09-03T11:59:04;97476.66;;;21.81;48.82
62293;BME280;48292;47.724;18.992;2022-09-03T12:04:06;97474.77;;;22.09;45.76
62293;BME280;48292;47.724;18.992;2022-09-03T12:09:13;97474.77;;;22.09;45.76
62293;BME280;48292;47.724;18.992;2022-09-03T12:14:19;97484.05;;;22.81;48.08
62293;BME280;48292;47.724;18.992;2022-09-03T12:19:26;97484.05;;;22.81;48.08
62293;BME280;48292;47.724;18.992;2022-09-03T12:24:31;97489.69;;;22.36;48.26
62293;BME280;48292;47.724;18.992;2022-09-03T12:29:48;97489.69;;;22.36;48.26
62293;BME280;48292;47.724;18.992;2022-09-03T12:34:45;97477.41;;;23.85;43.83
62293;BME280;48292;47.724;18.992;2022-09-03T12:39:50;97477.41;;;23.85;43.83
62293;BME280;48292;47.724;18.992;2022-09-03T12:50:04;97453.64;;;24.16;43.25
62293;BME280;48292;47.724;18.992;2022-09-03T12:55:07;97453.64;;;24.16;43.25
62293;BME280;48292;47.724;18.992;2022-09-03T13:00:13;97461.63;;;23.14;46.94
62293;BME280;48292;47.724;18.992;2022-09-03T13:05:16;97461.63;;;23.14;46.94
62293;BME280;48292;47.724;18.992;2022-09-03T13:10:22;97450.26;;;25.75;36.19
62293;BME280;48292;47.724;18.992;2022-09-03T13:15:26;97450.26;;;25.75;36.19
62293;BME280;48292;47.724;18.992;2022-09-03T13:20:30;97451.09;;;26.72;35.89
62293;BME280;48292;47.724;18.992;2022-09-03T13:25:35;97451.09;;;26.72;35.89
62293;BME280;48292;47.724;18.992;2022-09-03T13:30:42;97453.0;;;24.14;48.06
62293;BME280;48292;47.724;18.992;2022-09-03T13:35:46;97453.0;;;24.14;48.06
62293;BME280;48292;47.724;18.992;2022-09-03T13:40:51;97443.09;;;24.59;36.29
62293;BME280;48292;47.724;18.992;2022-09-03T13:45:55;97443.09;;;24.59;36.29
62293;BME280;48292;47.724;18.992;2022-09-03T13:51:02;97437.87;;;25.59;36.36
62293;BME280;48292;47.724;18.992;2022-09-03T13:56:06;97445.13;;;26.84;40.31
62293;BME280;48292;47.724;18.992;2022-09-03T14:01:14;97445.13;;;26.84;40.31
62293;BME280;48292;47.724;18.992;2022-09-03T14:06:23;97442.5;;;27.45;40.59
62293;BME280;48292;47.724;18.992;2022-09-03T14:11:27;97442.5;;;27.45;40.59
62293;BME280;48292;47.724;18.992;2022-09-03T14:16:34;97432.3;;;25.93;34.88
62293;BME280;48292;47.724;18.992;2022-09-03T14:21:39;97432.3;;;25.93;34.88
62293;BME280;48292;47.724;18.992;2022-09-03T14:26:49;97422.16;;;28.32;36.14
62293;BME280;48292;47.724;18.992;2022-09-03T14:31:57;97422.16;;;28.32;36.14
62293;BME280;48292;47.724;18.992;2022-09-03T14:37:04;97429.81;;;24.74;36.1
62293;BME280;48292;47.724;18.992;2022-09-03T14:42:12;97429.81;;;24.74;36.1
62293;BME280;48292;47.724;18.992;2022-09-03T14:47:22;97433.84;;;23.56;43.75
62293;BME280;48292;47.724;18.992;2022-09-03T14:52:31;97423.69;;;22.45;43.66
62293;BME280;48292;47.724;18.992;2022-09-03T14:57:41;97423.69;;;22.45;43.66
62293;BME280;48292;47.724;18.992;2022-09-03T15:02:53;97427.48;;;21.59;44.98
62293;BME280;48292;47.724;18.992;2022-09-03T15:07:58;97427.48;;;21.59;44.98
62293;BME280;48292;47.724;18.992;2022-09-03T15:13:07;97426.79;;;24.76;43.74
62293;BME280;48292;47.724;18.992;2022-09-03T15:18:14;97426.79;;;24.76;43.74
62293;BME280;48292;47.724;18.992;2022-09-03T15:23:25;97421.91;;;26.52;36.95
62293;BME280;48292;47.724;18.992;2022-09-03T15:28:32;97421.91;;;26.52;36.95
62293;BME280;48292;47.724;18.992;2022-09-03T15:33:38;97418.61;;;27.72;31.61
62293;BME280;48292;47.724;18.992;2022-09-03T15:38:44;97418.61;;;27.72;31.61
62293;BME280;48292;47.724;18.992;2022-09-03T15:43:50;97418.31;;;24.52;36.32
62293;BME280;48292;47.724;18.992;2022-09-03T15:48:57;97422.71;;;22.2;40.77
62293;BME280;48292;47.724;18.992;2022-09-03T15:54:00;97422.71;;;22.2;40.77
62293;BME280;48292;47.724;18.992;2022-09-03T15:59:06;97433.02;;;21.58;45.19
62293;BME280;48292;47.724;18.992;2022-09-03T16:04:21;97433.02;;;21.58;45.19
62293;BME280;48292;47.724;18.992;2022-09-03T16:09:28;97436.41;;;20.72;47.06
62293;BME280;48292;47.724;18.992;2022-09-03T16:14:34;97436.41;;;20.72;47.06
62293;BME280;48292;47.724;18.992;2022-09-03T16:19:40;97428.14;;;20.45;51.07
62293;BME280;48292;47.724;18.992;2022-09-03T16:24:46;97428.14;;;20.45;51.07
62293;BME280;48292;47.724;18.992;2022-09-03T16:34:58;97433.34;;;20.46;49.24
62293;BME280;48292;47.724;18.992;2022-09-03T16:40:09;97436.0;;;20.23;50.2
62293;BME280;48292;47.724;18.992;2022-09-03T16:45:16;97439.81;;;19.76;51.54
62293;BME280;48292;47.724;18.992;2022-09-03T16:50:23;97439.81;;;19.76;51.54
62293;BME280;48292;47.724;18.992;2022-09-03T16:55:29;97457.05;;;19.02;58.53
62293;BME280;48292;47.724;18.992;2022-09-03T17:00:38;97457.05;;;19.02;58.53
62293;BME280;48292;47.724;18.992;2022-09-03T17:05:47;97451.77;;;18.3;62.24
62293;BME280;48292;47.724;18.992;2022-09-03T17:10:53;97451.77;;;18.3;62.24
62293;BME280;48292;47.724;18.992;2022-09-03T17:15:58;97470.86;;;17.61;62.87
62293;BME280;48292;47.724;18.992;2022-09-03T17:21:07;97470.86;;;17.61;62.87
62293;BME280;48292;47.724;18.992;2022-09-03T17:26:11;97469.47;;;16.97;67.42
62293;BME280;48292;47.724;18.992;2022-09-03T17:31:18;97469.47;;;16.97;67.42
62293;BME280;48292;47.724;18.992;2022-09-03T17:36:22;97475.77;;;16.34;67.21
62293;BME280;48292;47.724;18.992;2022-09-03T17:41:30;97475.77;;;16.34;67.21
62293;BME280;48292;47.724;18.992;2022-09-03T17:46:36;97487.42;;;16.18;70.3
62293;BME280;48292;47.724;18.992;2022-09-03T17:51:42;97491.68;;;16.0;70.07
62293;BME280;48292;47.724;18.992;2022-09-03T17:56:46;97491.68;;;16.0;70.07
62293;BME280;48292;47.724;18.992;2022-09-03T18:01:51;97510.27;;;15.43;69.19
62293;BME280;48292;47.724;18.992;2022-09-03T18:06:55;97510.27;;;15.43;69.19
62293;BME280;48292;47.724;18.992;2022-09-03T18:12:04;97520.5;;;15.22;69.49
62293;BME280;48292;47.724;18.992;2022-09-03T18:17:08;97520.5;;;15.22;69.49
62293;BME280;48292;47.724;18.992;2022-09-03T18:22:11;97525.92;;;15.04;69.47
62293;BME280;48292;47.724;18.992;2022-09-03T18:27:14;97525.92;;;15.04;69.47
62293;BME280;48292;47.724;18.992;2022-09-03T18:32:18;97539.99;;;14.73;71.0
62293;BME280;48292;47.724;18.992;2022-09-03T18:37:21;97539.99;;;14.73;71.0
62293;BME280;48292;47.724;18.992;2022-09-03T18:42:26;97548.42;;;14.59;74.21
62293;BME280;48292;47.724;18.992;2022-09-03T18:47:36;97548.42;;;14.59;74.21
62293;BME280;48292;47.724;18.992;2022-09-03T18:52:41;97553.27;;;14.5;73.85
62293;BME280;48292;47.724;18.992;2022-09-03T18:57:48;97545.02;;;14.39;73.95
62293;BME280;48292;47.724;18.992;2022-09-03T19:02:56;97545.02;;;14.39;73.95
62293;BME280;48292;47.724;18.992;2022-09-03T19:08:01;97545.81;;;14.24;74.8
62293;BME280;48292;47.724;18.992;2022-09-03T19:13:13;97545.81;;;14.24;74.8
62293;BME280;48292;47.724;18.992;2022-09-03T19:18:21;97555.55;;;14.07;75.98
62293;BME280;48292;47.724;18.992;2022-09-03T19:23:25;97555.55;;;14.07;75.98
62293;BME280;48292;47.724;18.992;2022-09-03T19:28:28;97553.53;;;14.08;75.8
62293;BME280;48292;47.724;18.992;2022-09-03T19:33:32;97553.53;;;14.08;75.8
62293;BME280;48292;47.724;18.992;2022-09-03T19:38:41;97549.31;;;13.96;79.99
62293;BME280;48292;47.724;18.992;2022-09-03T19:43:48;97549.31;;;13.96;79.99
62293;BME280;48292;47.724;18.992;2022-09-03T19:48:56;97551.92;;;14.01;80.97
62293;BME280;48292;47.724;18.992;2022-09-03T19:54:01;97559.39;;;13.97;80.83
62293;BME280;48292;47.724;18.992;2022-09-03T19:59:08;97559.39;;;13.97;80.83
62293;BME280;48292;47.724;18.992;2022-09-03T20:04:11;97576.5;;;13.94;82.45
62293;BME280;48292;47.724;18.992;2022-09-03T20:09:14;97576.5;;;13.94;82.45
62293;BME280;48292;47.724;18.992;2022-09-03T20:14:19;97579.8;;;14.03;80.77
62293;BME280;48292;47.724;18.992;2022-09-03T20:19:23;97579.8;;;14.03;80.77
62293;BME280;48292;47.724;18.992;2022-09-03T20:24:31;97580.34;;;14.29;83.65
62293;BME280;48292;47.724;18.992;2022-09-03T20:29:40;97580.34;;;14.29;83.65
62293;BME280;48292;47.724;18.992;2022-09-03T20:34:46;97587.91;;;14.01;83.49
62293;BME280;48292;47.724;18.992;2022-09-03T20:39:55;97587.91;;;14.01;83.49
62293;BME280;48292;47.724;18.992;2022-09-03T20:45:01;97590.72;;;14.02;83.54
62293;BME280;48292;47.724;18.992;2022-09-03T20:50:08;97590.72;;;14.02;83.54
62293;BME280;48292;47.724;18.992;2022-09-03T20:55:14;97590.72;;;14.02;83.54
62293;BME280;48292;47.724;18.992;2022-09-03T21:00:17;97590.72;;;14.02;83.54
62293;BME280;48292;47.724;18.992;2022-09-03T21:05:21;97590.72;;;14.02;83.54
62293;BME280;48292;47.724;18.992;2022-09-03T21:10:28;97590.72;;;14.02;83.54
62293;BME280;48292;47.724;18.992;2022-09-03T21:15:35;97590.72;;;14.02;83.54
62293;BME280;48292;47.724;18.992;2022-09-03T21:20:41;97590.72;;;14.02;83.54
62293;BME280;48292;47.724;18.992;2022-09-03T21:25:48;97590.72;;;14.02;83.54
62293;BME280;48292;47.724;18.992;2022-09-03T21:30:52;97590.72;;;14.02;83.54
62293;BME280;48292;47.724;18.992;2022-09-03T21:35:59;97590.72;;;14.02;83.54
